createdAt,value
2018-03-20T00:00:37.675Z,8.60
2018-03-20T00:03:05.198Z,8.30
2018-03-20T00:05:32.718Z,7.43
2018-03-20T00:08:01.034Z,6.60
2018-03-20T00:10:28.566Z,7.77
2018-03-20T00:12:56.123Z,7.70
2018-03-20T00:15:23.658Z,6.73
2018-03-20T00:17:51.203Z,6.63
2018-03-20T00:20:18.730Z,7.30
2018-03-20T00:22:46.284Z,6.77
2018-03-20T00:25:13.803Z,7.70
2018-03-20T00:27:42.126Z,6.30
2018-03-20T00:30:09.645Z,7.63
2018-03-20T00:32:37.962Z,6.57
2018-03-20T00:35:05.492Z,6.40
2018-03-20T00:37:33.054Z,8.57
2018-03-20T00:40:01.350Z,7.43
2018-03-20T00:42:28.900Z,6.83
2018-03-20T00:44:56.430Z,6.17
2018-03-20T00:47:23.991Z,8.50
2018-03-20T00:49:51.531Z,7.30
2018-03-20T00:52:19.083Z,7.90
2018-03-20T00:54:46.597Z,8.03
2018-03-20T00:57:14.904Z,6.70
2018-03-20T00:59:42.429Z,4.80
2018-03-20T01:02:10.757Z,7.37
2018-03-20T01:04:38.287Z,8.20
2018-03-20T01:07:05.815Z,8.23
2018-03-20T01:09:34.145Z,8.67
2018-03-20T01:12:01.678Z,9.90
2018-03-20T01:14:29.237Z,8.37
2018-03-20T01:16:56.774Z,6.17
2018-03-20T01:19:25.090Z,7.60
2018-03-20T01:21:52.617Z,5.73
2018-03-20T01:24:20.946Z,8.07
2018-03-20T01:26:48.481Z,5.73
2018-03-20T01:29:16.026Z,7.10
2018-03-20T01:31:43.551Z,6.13
2018-03-20T01:34:11.099Z,5.90
2018-03-20T01:36:38.626Z,6.47
2018-03-20T01:39:06.193Z,5.77
2018-03-20T01:41:33.714Z,6.97
2018-03-20T01:44:02.030Z,8.90
2018-03-20T01:46:29.553Z,7.37
2018-03-20T01:48:57.098Z,7.73
2018-03-20T01:51:24.622Z,8.03
2018-03-20T01:53:52.287Z,8.50
2018-03-20T01:56:19.842Z,9.97
2018-03-20T01:58:47.404Z,8.77
2018-03-20T02:01:15.926Z,10.40
2018-03-20T02:03:43.479Z,11.17
2018-03-20T02:06:11.002Z,16.83
2018-03-20T02:08:38.521Z,8.87
2018-03-20T02:11:06.842Z,10.47
2018-03-20T02:13:34.374Z,11.23
2018-03-20T02:16:01.931Z,11.00
2018-03-20T02:18:29.486Z,13.77
2018-03-20T02:20:57.806Z,13.00
2018-03-20T02:23:25.330Z,15.10
2018-03-20T02:25:52.897Z,12.10
2018-03-20T02:28:20.418Z,13.47
2018-03-20T02:30:47.971Z,9.67
2018-03-20T02:33:15.494Z,13.23
2018-03-20T02:35:43.063Z,10.37
2018-03-20T02:38:10.587Z,9.63
2018-03-20T02:40:38.144Z,17.87
2018-03-20T02:43:06.439Z,10.50
2018-03-20T02:45:33.989Z,11.57
2018-03-20T02:48:01.520Z,13.13
2018-03-20T02:50:29.066Z,11.17
2018-03-20T02:52:56.587Z,13.97
2018-03-20T02:55:24.146Z,12.63
2018-03-20T02:57:51.687Z,13.23
2018-03-20T03:00:19.237Z,12.30
2018-03-20T03:02:47.522Z,11.40
2018-03-20T03:05:15.069Z,13.00
2018-03-20T03:07:43.359Z,11.63
2018-03-20T03:10:11.679Z,8.87
2018-03-20T03:12:39.204Z,8.13
2018-03-20T03:15:06.726Z,10.87
2018-03-20T03:17:34.273Z,10.07
2018-03-20T03:20:01.790Z,8.80
2018-03-20T03:22:29.344Z,11.07
2018-03-20T03:24:56.869Z,8.20
2018-03-20T03:27:24.425Z,15.40
2018-03-20T03:29:51.946Z,9.20
2018-03-20T03:32:19.502Z,10.23
2018-03-20T03:34:47.030Z,12.97
2018-03-20T03:37:15.350Z,7.80
2018-03-20T03:39:42.874Z,10.10
2018-03-20T03:42:11.191Z,9.13
2018-03-20T03:44:38.721Z,17.73
2018-03-20T03:47:06.275Z,10.73
2018-03-20T03:49:34.562Z,12.37
2018-03-20T03:52:02.107Z,9.93
2018-03-20T03:54:31.498Z,12.47
2018-03-20T03:56:59.142Z,11.27
2018-03-20T03:59:26.658Z,9.77
2018-03-20T04:01:54.210Z,11.33
2018-03-20T04:04:21.729Z,10.43
2018-03-20T04:06:49.294Z,13.93
2018-03-20T04:09:16.823Z,10.97
2018-03-20T04:11:44.382Z,10.90
2018-03-20T04:14:11.906Z,16.50
2018-03-20T04:16:39.430Z,9.47
2018-03-20T04:19:06.982Z,16.47
2018-03-20T04:21:34.501Z,14.20
2018-03-20T04:24:02.046Z,12.10
2018-03-20T04:26:29.570Z,13.00
2018-03-20T04:28:57.118Z,9.90
2018-03-20T04:31:24.637Z,11.83
2018-03-20T04:33:52.186Z,15.00
2018-03-20T04:36:20.466Z,15.13
2018-03-20T04:38:48.014Z,12.63
2018-03-20T04:41:16.306Z,13.73
2018-03-20T04:43:43.853Z,10.23
2018-03-20T04:46:12.138Z,13.43
2018-03-20T04:48:39.694Z,19.27
2018-03-20T04:51:07.971Z,9.07
2018-03-20T04:53:36.291Z,8.87
2018-03-20T04:56:03.818Z,13.00
2018-03-20T04:58:31.371Z,9.47
2018-03-20T05:00:59.653Z,14.60
2018-03-20T05:03:27.198Z,13.23
2018-03-20T05:05:55.491Z,10.33
2018-03-20T05:08:23.048Z,13.57
2018-03-20T05:10:50.567Z,11.33
2018-03-20T05:13:18.118Z,12.27
2018-03-20T05:15:45.638Z,10.70
2018-03-20T05:18:13.190Z,11.70
2018-03-20T05:23:50.267Z,15.63
2018-03-20T05:26:17.790Z,11.67
2018-03-20T05:28:45.409Z,14.57
2018-03-20T05:31:12.930Z,16.47
2018-03-20T05:33:40.453Z,14.87
2018-03-20T05:36:08.011Z,16.57
2018-03-20T05:38:35.529Z,14.33
2018-03-20T05:41:03.087Z,11.50
2018-03-20T05:43:30.608Z,15.83
2018-03-20T05:45:58.161Z,14.57
2018-03-20T05:51:39.444Z,14.13
2018-03-20T05:54:07.555Z,15.37
2018-03-20T05:56:35.716Z,14.47
2018-03-20T05:59:03.322Z,14.77
2018-03-20T06:01:30.870Z,12.67
2018-03-20T06:03:58.385Z,12.97
2018-03-20T06:06:25.933Z,14.40
2018-03-20T06:08:53.458Z,14.73
2018-03-20T06:11:21.043Z,12.47
2018-03-20T06:13:49.337Z,11.80
2018-03-20T06:16:16.901Z,11.07
2018-03-20T06:18:44.445Z,16.73
2018-03-20T06:21:12.762Z,8.40
2018-03-20T06:23:40.308Z,16.17
2018-03-20T06:26:07.854Z,12.10
2018-03-20T06:28:35.386Z,11.10
2018-03-20T06:31:02.938Z,13.80
2018-03-20T06:33:30.457Z,10.60
2018-03-20T06:35:58.002Z,13.37
2018-03-20T06:38:25.549Z,13.97
2018-03-20T06:40:53.069Z,12.27
2018-03-20T06:43:20.609Z,13.43
2018-03-20T06:45:48.139Z,19.60
2018-03-20T06:48:15.691Z,12.70
2018-03-20T06:50:43.217Z,10.57
2018-03-20T06:53:10.756Z,12.83
2018-03-20T06:55:38.269Z,11.57
2018-03-20T06:58:05.816Z,5.63
2018-03-20T07:00:34.103Z,9.17
2018-03-20T07:03:01.654Z,9.80
2018-03-20T07:05:29.935Z,8.47
2018-03-20T07:07:58.251Z,6.43
2018-03-20T07:10:25.761Z,5.07
2018-03-20T07:12:53.302Z,6.80
2018-03-20T07:15:20.813Z,5.60
2018-03-20T07:17:48.361Z,5.57
2018-03-20T07:20:15.873Z,5.20
2018-03-20T07:22:43.423Z,4.30
2018-03-20T07:25:10.933Z,4.47
2018-03-20T07:27:39.297Z,3.97
2018-03-20T07:30:06.810Z,7.57
2018-03-20T07:32:34.346Z,8.10
2018-03-20T07:35:01.900Z,4.13
2018-03-20T07:37:29.455Z,5.17
2018-03-20T07:39:57.787Z,4.73
2018-03-20T07:42:25.261Z,4.60
2018-03-20T07:44:52.803Z,5.33
2018-03-20T07:47:20.322Z,5.43
2018-03-20T07:49:47.879Z,7.87
2018-03-20T07:52:15.396Z,4.90
2018-03-20T07:54:42.940Z,4.67
2018-03-20T07:57:10.446Z,5.97
2018-03-20T07:59:38.750Z,4.43
2018-03-20T08:02:06.268Z,4.73
2018-03-20T08:04:33.814Z,5.03
2018-03-20T08:07:01.325Z,4.50
2018-03-20T08:09:28.883Z,6.67
2018-03-20T08:11:56.393Z,4.57
2018-03-20T08:14:23.932Z,6.53
2018-03-20T08:16:51.441Z,5.50
2018-03-20T08:19:19.755Z,4.93
2018-03-20T08:21:47.269Z,5.43
2018-03-20T08:24:14.805Z,6.33
2018-03-20T08:26:42.321Z,5.53
2018-03-20T08:29:09.869Z,5.70
2018-03-20T08:31:38.152Z,6.53
2018-03-20T08:34:05.706Z,4.63
2018-03-20T08:36:33.991Z,5.33
2018-03-20T08:39:02.298Z,4.00
2018-03-20T08:41:29.805Z,6.17
2018-03-20T08:43:57.342Z,3.50
2018-03-20T08:46:24.889Z,5.83
2018-03-20T08:48:52.400Z,4.07
2018-03-20T08:51:20.705Z,6.03
2018-03-20T08:53:48.214Z,5.27
2018-03-20T08:56:15.759Z,3.57
2018-03-20T08:58:43.278Z,5.70
2018-03-20T09:01:10.826Z,5.17
2018-03-20T09:03:39.101Z,4.37
2018-03-20T09:06:07.405Z,4.67
2018-03-20T09:08:34.921Z,4.90
2018-03-20T09:11:02.462Z,4.00
2018-03-20T09:13:29.977Z,4.33
2018-03-20T09:15:57.521Z,4.23
2018-03-20T09:18:25.809Z,5.23
2018-03-20T09:20:53.349Z,6.90
2018-03-20T09:23:21.625Z,4.07
2018-03-20T09:25:49.930Z,5.83
2018-03-20T09:28:17.441Z,4.57
2018-03-20T09:30:44.982Z,4.23
2018-03-20T09:33:12.497Z,5.47
2018-03-20T09:35:40.810Z,8.83
2018-03-20T09:38:08.322Z,5.60
2018-03-20T09:40:36.639Z,4.17
2018-03-20T09:43:04.158Z,5.70
2018-03-20T09:45:32.468Z,6.17
2018-03-20T09:47:59.977Z,3.93
2018-03-20T09:50:27.493Z,3.20
2018-03-20T09:52:55.034Z,3.90
2018-03-20T09:55:23.318Z,3.53
2018-03-20T09:57:50.857Z,2.77
2018-03-20T10:00:19.133Z,3.10
2018-03-20T10:02:47.441Z,3.67
2018-03-20T10:05:14.958Z,4.07
2018-03-20T10:07:42.498Z,2.50
2018-03-20T10:10:10.010Z,3.60
2018-03-20T10:12:37.557Z,3.00
2018-03-20T10:15:05.838Z,3.67
2018-03-20T10:17:34.143Z,2.23
2018-03-20T10:20:01.701Z,3.50
2018-03-20T10:22:29.239Z,2.63
2018-03-20T10:24:57.543Z,3.10
2018-03-20T10:27:25.082Z,2.60
2018-03-20T10:29:53.366Z,3.10
2018-03-20T10:32:20.918Z,2.07
2018-03-20T10:34:49.202Z,3.47
2018-03-20T10:37:16.743Z,3.00
2018-03-20T10:39:45.022Z,2.17
2018-03-20T10:42:13.335Z,3.00
2018-03-20T10:44:40.848Z,4.87
2018-03-20T10:47:08.389Z,2.20
2018-03-20T10:49:35.910Z,1.70
2018-03-20T10:52:03.421Z,2.63
2018-03-20T10:54:30.964Z,2.87
2018-03-20T10:56:58.481Z,2.80
2018-03-20T10:59:26.030Z,1.93
2018-03-20T11:01:54.881Z,2.77
2018-03-20T11:04:22.426Z,3.03
2018-03-20T11:06:49.942Z,1.63
2018-03-20T11:09:18.250Z,2.37
2018-03-20T11:11:45.771Z,3.30
2018-03-20T11:14:14.088Z,1.83
2018-03-20T11:16:41.606Z,2.30
2018-03-20T11:19:09.921Z,2.50
2018-03-20T11:21:37.440Z,1.60
2018-03-20T11:24:04.993Z,1.73
2018-03-20T11:26:32.510Z,3.30
2018-03-20T11:29:00.056Z,3.37
2018-03-20T11:31:27.573Z,2.13
2018-03-20T11:33:55.117Z,2.37
2018-03-20T11:36:22.642Z,3.40
2018-03-20T11:38:50.201Z,1.43
2018-03-20T11:41:17.722Z,2.60
2018-03-20T11:43:46.030Z,1.30
2018-03-20T11:46:13.549Z,2.37
2018-03-20T11:48:41.102Z,1.97
2018-03-20T11:51:08.622Z,2.07
2018-03-20T11:53:36.162Z,1.83
2018-03-20T11:56:03.710Z,2.60
2018-03-20T11:58:31.997Z,3.23
2018-03-20T12:00:59.553Z,1.57
2018-03-20T12:03:27.842Z,3.57
2018-03-20T12:05:55.389Z,4.10
2018-03-20T12:11:25.874Z,6.33
2018-03-20T12:13:53.397Z,19.20
2018-03-20T12:16:21.701Z,3.27
2018-03-20T12:18:49.218Z,3.17
2018-03-20T12:21:16.758Z,3.63
2018-03-20T12:23:44.274Z,3.20
2018-03-20T12:26:11.850Z,1.90
2018-03-20T12:28:39.357Z,3.67
2018-03-20T12:31:06.889Z,1.57
2018-03-20T12:33:34.400Z,2.17
2018-03-20T12:36:02.716Z,2.20
2018-03-20T12:38:31.251Z,2.60
2018-03-20T12:41:00.598Z,2.57
2018-03-20T12:43:28.969Z,2.43
2018-03-20T12:45:56.565Z,3.07
2018-03-20T12:48:24.073Z,2.53
2018-03-20T12:50:51.630Z,2.03
2018-03-20T12:53:19.149Z,1.40
2018-03-20T12:55:46.722Z,1.97
2018-03-20T12:58:14.254Z,1.73
2018-03-20T13:00:41.817Z,1.40
2018-03-20T13:03:09.352Z,1.40
2018-03-20T13:05:36.890Z,1.90
2018-03-20T13:08:04.413Z,1.37
2018-03-20T13:10:31.935Z,2.00
2018-03-20T13:12:59.473Z,1.60
2018-03-20T13:15:26.994Z,3.33
2018-03-20T13:17:54.553Z,2.30
2018-03-20T13:20:22.078Z,1.33
2018-03-20T13:22:49.629Z,3.53
2018-03-20T13:25:17.141Z,3.03
2018-03-20T13:27:44.692Z,3.33
2018-03-20T13:30:12.206Z,4.30
2018-03-20T13:32:39.754Z,2.47
2018-03-20T13:35:07.275Z,2.40
2018-03-20T13:37:34.851Z,2.63
2018-03-20T13:40:02.362Z,1.53
2018-03-20T13:42:29.911Z,1.73
2018-03-20T13:44:57.425Z,2.00
2018-03-20T13:47:24.969Z,1.27
2018-03-20T13:49:52.485Z,2.90
2018-03-20T13:52:20.035Z,2.30
2018-03-20T13:54:47.550Z,4.07
2018-03-20T13:57:15.094Z,2.10
2018-03-20T13:59:42.609Z,1.90
2018-03-20T14:02:10.919Z,4.53
2018-03-20T14:04:38.461Z,2.37
2018-03-20T14:07:05.998Z,2.70
2018-03-20T14:09:34.290Z,2.97
2018-03-20T14:12:01.857Z,1.67
2018-03-20T14:14:29.390Z,2.43
2018-03-20T14:16:57.690Z,6.33
2018-03-20T14:19:25.245Z,11.57
2018-03-20T14:21:53.534Z,2.20
2018-03-20T14:24:21.111Z,1.63
2018-03-20T14:26:48.637Z,2.40
2018-03-20T14:29:16.953Z,3.10
2018-03-20T14:31:44.474Z,2.30
2018-03-20T14:34:12.787Z,3.63
2018-03-20T14:36:40.307Z,2.20
2018-03-20T14:39:08.623Z,1.93
2018-03-20T14:41:36.150Z,2.57
2018-03-20T14:44:04.453Z,2.63
2018-03-20T14:46:31.973Z,1.80
2018-03-20T14:48:59.578Z,1.87
2018-03-20T14:51:27.058Z,1.30
2018-03-20T14:53:54.605Z,3.37
2018-03-20T14:56:22.118Z,2.37
2018-03-20T14:58:49.722Z,2.27
2018-03-20T15:01:17.978Z,3.63
2018-03-20T15:03:45.521Z,2.37
2018-03-20T15:06:13.809Z,2.47
2018-03-20T15:08:42.122Z,5.17
2018-03-20T15:11:09.642Z,1.90
2018-03-20T15:13:37.957Z,2.67
2018-03-20T15:16:05.520Z,3.07
2018-03-20T15:18:33.778Z,2.03
2018-03-20T15:21:01.332Z,1.90
2018-03-20T15:23:29.650Z,1.73
2018-03-20T15:25:57.173Z,3.23
2018-03-20T15:28:25.461Z,2.53
2018-03-20T15:30:53.013Z,2.57
2018-03-20T15:33:21.301Z,1.93
2018-03-20T15:35:48.842Z,2.47
2018-03-20T15:38:17.133Z,1.83
2018-03-20T15:40:44.682Z,2.13
2018-03-20T15:43:12.978Z,2.27
2018-03-20T15:45:40.521Z,2.47
2018-03-20T15:48:08.801Z,3.03
2018-03-20T15:50:37.114Z,2.73
2018-03-20T15:53:04.642Z,3.63
2018-03-20T15:55:32.963Z,1.90
2018-03-20T15:58:00.483Z,2.00
2018-03-20T16:00:28.798Z,3.00
2018-03-20T16:02:57.097Z,2.87
2018-03-20T16:05:24.654Z,2.13
2018-03-20T16:07:52.174Z,1.40
2018-03-20T16:10:19.724Z,1.93
2018-03-20T16:12:48.013Z,3.03
2018-03-20T16:15:15.558Z,2.87
2018-03-20T16:17:43.850Z,2.20
2018-03-20T16:20:11.406Z,2.57
2018-03-20T16:22:38.931Z,2.47
2018-03-20T16:25:06.454Z,2.33
2018-03-20T16:27:33.998Z,2.93
2018-03-20T16:30:01.515Z,2.53
2018-03-20T16:32:29.066Z,2.20
2018-03-20T16:34:56.591Z,1.33
2018-03-20T16:37:24.146Z,2.93
2018-03-20T16:39:51.673Z,1.90
2018-03-20T16:42:19.994Z,1.80
2018-03-20T16:44:47.514Z,5.13
2018-03-20T16:47:15.825Z,2.00
2018-03-20T16:49:43.336Z,2.67
2018-03-20T16:52:10.877Z,1.70
2018-03-20T16:54:38.394Z,2.57
2018-03-20T16:57:05.938Z,2.83
2018-03-20T16:59:34.218Z,1.80
2018-03-20T17:02:01.758Z,4.83
2018-03-20T17:04:30.042Z,4.00
2018-03-20T17:06:58.354Z,6.87
2018-03-20T17:09:25.875Z,4.63
2018-03-20T17:11:53.426Z,7.47
2018-03-20T17:14:20.948Z,4.73
2018-03-20T17:16:48.498Z,2.50
2018-03-20T17:19:16.017Z,3.43
2018-03-20T17:21:44.326Z,4.23
2018-03-20T17:24:11.849Z,2.83
2018-03-20T17:26:40.171Z,4.50
2018-03-20T17:29:07.690Z,3.77
2018-03-20T17:31:35.210Z,2.20
2018-03-20T17:34:02.764Z,5.27
2018-03-20T17:36:30.295Z,2.63
2018-03-20T17:38:57.866Z,1.67
2018-03-20T17:41:26.135Z,2.67
2018-03-20T17:43:53.677Z,3.93
2018-03-20T17:46:21.962Z,1.83
2018-03-20T17:48:50.279Z,1.93
2018-03-20T17:51:17.788Z,4.67
2018-03-20T17:53:46.098Z,2.57
2018-03-20T17:56:13.618Z,3.77
2018-03-20T17:58:41.168Z,2.53
2018-03-20T18:01:08.682Z,2.07
2018-03-20T18:03:36.221Z,2.83
2018-03-20T18:06:04.492Z,2.67
2018-03-20T18:08:32.814Z,3.53
2018-03-20T18:11:00.334Z,2.40
2018-03-20T18:13:28.644Z,3.80
2018-03-20T18:15:56.165Z,1.83
2018-03-20T18:18:24.489Z,1.73
2018-03-20T18:20:52.004Z,1.20
2018-03-20T18:23:20.314Z,2.03
2018-03-20T18:25:47.830Z,2.20
2018-03-20T18:28:15.377Z,2.57
2018-03-20T18:30:42.903Z,1.77
2018-03-20T18:33:10.419Z,3.30
2018-03-20T18:35:38.725Z,3.00
2018-03-20T18:38:06.242Z,3.43
2018-03-20T18:40:33.778Z,2.60
2018-03-20T18:43:01.358Z,2.53
2018-03-20T18:45:28.874Z,2.57
2018-03-20T18:47:56.382Z,2.30
2018-03-20T18:50:23.922Z,1.40
2018-03-20T18:52:51.443Z,2.40
2018-03-20T18:55:18.986Z,3.80
2018-03-20T18:57:46.503Z,2.93
2018-03-20T19:00:14.041Z,1.93
2018-03-20T19:02:41.555Z,2.13
2018-03-20T19:05:09.102Z,2.23
2018-03-20T19:07:36.612Z,3.57
2018-03-20T19:10:04.150Z,2.67
2018-03-20T19:12:32.430Z,2.00
2018-03-20T19:14:59.974Z,3.47
2018-03-20T19:17:28.255Z,2.13
2018-03-20T19:19:56.574Z,2.03
2018-03-20T19:22:24.086Z,2.10
2018-03-20T19:24:51.638Z,3.90
2018-03-20T19:27:19.228Z,1.77
2018-03-20T19:29:46.753Z,3.13
2018-03-20T19:32:14.302Z,2.17
2018-03-20T19:34:41.815Z,1.63
2018-03-20T19:37:09.356Z,2.83
2018-03-20T19:39:37.635Z,3.17
2018-03-20T19:42:05.937Z,2.70
2018-03-20T19:44:33.454Z,3.17
2018-03-20T19:47:01.003Z,3.17
2018-03-20T19:49:28.514Z,2.53
2018-03-20T19:51:56.054Z,2.13
2018-03-20T19:54:24.340Z,1.57
2018-03-20T19:56:51.882Z,1.63
2018-03-20T19:59:19.437Z,2.53
2018-03-20T20:01:48.332Z,1.60
2018-03-20T20:04:16.061Z,2.30
2018-03-20T20:06:43.792Z,3.43
2018-03-20T20:09:11.326Z,3.93
2018-03-20T20:11:39.642Z,1.83
2018-03-20T20:14:07.287Z,2.30
2018-03-20T20:16:35.525Z,2.60
2018-03-20T20:19:03.181Z,2.77
2018-03-20T20:21:31.660Z,5.47
2018-03-20T20:24:00.095Z,3.20
2018-03-20T20:26:27.755Z,2.87
2018-03-20T20:28:55.318Z,4.13
2018-03-20T20:31:23.465Z,3.33
2018-03-20T20:33:51.069Z,3.73
2018-03-20T20:36:18.592Z,3.23
2018-03-20T20:38:46.893Z,2.83
2018-03-20T20:41:14.410Z,2.97
2018-03-20T20:43:43.131Z,2.97
2018-03-20T20:46:11.468Z,3.03
2018-03-20T20:48:39.111Z,4.97
2018-03-20T20:51:07.361Z,2.40
2018-03-20T20:53:35.753Z,2.33
2018-03-20T20:56:03.270Z,3.50
2018-03-20T20:58:31.585Z,4.33
2018-03-20T21:01:05.298Z,3.00
2018-03-20T21:03:32.925Z,3.67
2018-03-20T21:06:01.206Z,2.37
2018-03-20T21:08:29.595Z,2.37
2018-03-20T21:10:57.804Z,4.00
2018-03-20T21:13:26.143Z,5.63
2018-03-20T21:15:54.415Z,2.67
2018-03-20T21:18:22.968Z,3.83
2018-03-20T21:20:51.976Z,2.90
2018-03-20T21:23:19.521Z,3.73
2018-03-20T21:25:47.045Z,2.57
2018-03-20T21:28:14.588Z,1.77
2018-03-20T21:30:42.105Z,4.87
2018-03-20T21:33:09.701Z,4.93
2018-03-20T21:35:37.213Z,5.53
2018-03-20T21:38:04.730Z,4.30
2018-03-20T21:40:32.277Z,3.67
2018-03-20T21:43:00.549Z,7.20
2018-03-20T21:45:28.859Z,4.10
2018-03-20T21:47:56.369Z,3.30
2018-03-20T21:50:23.905Z,4.87
2018-03-20T21:52:51.422Z,3.23
2018-03-20T21:55:18.970Z,2.80
2018-03-20T21:57:47.245Z,5.13
2018-03-20T22:00:15.546Z,4.07
2018-03-20T22:02:43.072Z,4.40
2018-03-20T22:05:10.610Z,2.93
2018-03-20T22:07:38.131Z,2.77
2018-03-20T22:10:05.673Z,4.90
2018-03-20T22:12:33.959Z,8.03
2018-03-20T22:15:01.506Z,5.03
2018-03-20T22:17:29.026Z,3.13
2018-03-20T22:19:56.566Z,5.33
2018-03-20T22:22:24.090Z,4.10
2018-03-20T22:24:51.652Z,3.83
2018-03-20T22:27:19.166Z,5.20
2018-03-20T22:29:46.720Z,3.07
2018-03-20T22:32:14.359Z,6.07
2018-03-20T22:34:41.919Z,5.67
2018-03-20T22:37:09.441Z,3.27
2018-03-20T22:39:36.958Z,8.67
2018-03-20T22:42:04.513Z,2.70
2018-03-20T22:44:32.034Z,4.87
2018-03-20T22:46:59.588Z,4.10
2018-03-20T22:49:27.887Z,3.97
2018-03-20T22:51:56.197Z,4.17
2018-03-20T22:54:23.730Z,2.63
2018-03-20T22:56:51.277Z,3.07
2018-03-20T22:59:18.803Z,4.40
2018-03-20T23:01:46.349Z,3.80
2018-03-20T23:04:13.866Z,3.40
2018-03-20T23:06:41.406Z,3.83
2018-03-20T23:09:08.938Z,2.83
2018-03-20T23:11:36.498Z,2.37
2018-03-20T23:14:04.028Z,3.40
2018-03-20T23:16:31.569Z,4.87
2018-03-20T23:18:59.091Z,3.50
2018-03-20T23:21:27.401Z,4.20
2018-03-20T23:23:54.925Z,3.53
2018-03-20T23:26:23.244Z,3.10
2018-03-20T23:28:50.775Z,4.33
2018-03-20T23:31:19.097Z,5.20
2018-03-20T23:33:46.618Z,3.43
2018-03-20T23:36:14.934Z,4.63
2018-03-20T23:38:42.458Z,4.33
2018-03-20T23:41:09.987Z,4.23
2018-03-20T23:43:37.535Z,3.90
2018-03-20T23:46:05.056Z,5.30
2018-03-20T23:48:32.595Z,4.90
2018-03-20T23:51:00.141Z,6.70
2018-03-20T23:53:28.457Z,4.77
2018-03-20T23:55:55.973Z,6.10
2018-03-20T23:58:24.337Z,5.10
